Scroll down
FLIGHT INFORMATION
American Airlines

AAL2218

At Arrival Gate

KDFW
 KSAT
DATE: 2020-08-28
GATE:  -
GATE DEPARTURE: 23:47
TAKEOFF: 00:02
DATE: 2020-08-29
GATE:  -
LANDING: 00:48
GATE ARRIVAL: 00:55
FLIGHT DATA
Crew: 
Speed: 
439 kts
Altitude: 
26,000 ft
Stage Length: 
214.8 nm
Block Time: 
1.1 hrs
Flight Time: 
0.8 hrs
Fuel Used: 
5,705 lb
Cleared Route: KDFW TREXX DALBY ENIKE JASPA WINDU BLEWE CWK MARCS BRAUN TROOP CRISS JATAX HASDO RW13R
TRACK DATA
50,000 ft 1,000 kts
AIRCRAFT INFO AND CUMULATIVE STATS
Aircraft Type: 
B738BW
Registration: 
SELCAL: 
AFKM
MSN/LN: 
33317 / 4197
Operator: 
Total Flights: 
6
Total Block Time: 
9.4 hrs
Total Flight Time: 
7.5 hrs
Total Fuel Time: 
51,227 lb
DATALINK LOG | Newest first | Current as of: 2020-11-27 14:37:47
LABEL SEQUENCE CONTENT Dn/Up
QD152100:55 9.2▼ Dn
QC081800:48▼ Dn
5U1551KSAT 290428Z 17009KT 10SM FEW150 38/18 A2977▲ Up
5S3445KSAT▼ Dn
2U1400KSAT 282351Z 15009KT 10SM FEW075 38/18 A2977 RMK AO2 SLP060 T03830183 10400 20350 56008▲ Up
2S3344KSAT▼ Dn
QB072000:02▼ Dn
QA520523:47 15▼ Dn
Q03348[LINK ACK]▲ Up
Q03348[LINK TEST]▼ Dn


AIRCRAFT HISTORY
FLIGHT DATE FLIGHT NO. ORIGIN DESTINATION CLEARED ROUTE BLOCK TIME FLIGHT TIME FUEL USED PILOT
2020-10-03AAL2657KMCO KMIA KMCO MLB HILEY KAINS CIMBA JESSS RUBOE COPRA RW08R1.1 hrs0.7 hrs5,590 lbMichael Collier
2020-09-30AAL2815KMIA KMCO KMIA SENOY CIMBA FORKK VVMAX HEDLY PHK BAIRN NOBBS MICKX RAMEZ POPYE GLOSI RW17R1 hrs0.7 hrs5,143 lbMichael Collier
2020-09-11AAL911KDFW KMIA KDFW ZALEA SWB HRV FATSO REDFN BLVNS BUNNZ BACCA CIGAR GAWKS BAGGS KMIA2.9 hrs2.5 hrs16,508 lbCharles Harris
2020-09-05AAL2591KSAT KDFW KSAT SAT GOBBY GUTZZ EGADS FDUBB KIILO KYSSS BOOVE SHMPP CURLE MOWWW DELMO LREEE BEONE BOSSI RW17C1.2 hrs0.8 hrs5,526 lbMichael Collier
2020-08-28AAL2218KDFW KSAT KDFW TREXX DALBY ENIKE JASPA WINDU BLEWE CWK MARCS BRAUN TROOP CRISS JATAX HASDO RW13R1.1 hrs0.8 hrs5,705 lbMichael Collier
2020-08-02AAL393MMMX KDFW MMMX MUXEP XOSOK TAM URVOX AVUMO URVUT AGUAS LIBOX ONDEV REX MFE SAT GUTZZ KDFW2.5 hrs2.1 hrs12,756 lbMichael Roth